createdAt,value
2022-10-24T00:00:18.929Z,23.70
2022-10-24T00:03:09.149Z,24.60
2022-10-24T00:05:42.533Z,21.60
2022-10-24T00:08:12.629Z,19.80
2022-10-24T00:10:44.416Z,26.90
2022-10-24T00:13:17.681Z,21.30
2022-10-24T00:15:49.209Z,21.50
2022-10-24T00:18:18.148Z,21.30
2022-10-24T00:20:47.452Z,19.30
2022-10-24T00:23:17.018Z,22.20
2022-10-24T00:25:46.611Z,22.20
2022-10-24T00:28:16.585Z,21.30
2022-10-24T00:30:46.138Z,17.30
2022-10-24T00:33:15.126Z,19.90
2022-10-24T00:35:44.068Z,17.60
2022-10-24T00:38:13.142Z,16.40
2022-10-24T00:40:42.947Z,18.10
2022-10-24T00:43:16.842Z,17.90
2022-10-24T00:45:48.567Z,22.40
2022-10-24T00:48:21.406Z,16.70
2022-10-24T00:50:53.079Z,17.00
2022-10-24T00:53:24.877Z,20.40
2022-10-24T00:55:56.299Z,11.90
2022-10-24T00:58:28.546Z,12.30
2022-10-24T01:00:57.463Z,13.70
2022-10-24T01:03:26.886Z,11.60
2022-10-24T01:06:23.681Z,12.20
2022-10-24T01:08:58.834Z,10.90
2022-10-24T01:11:42.581Z,10.30
2022-10-24T01:14:21.779Z,10.80
2022-10-24T01:16:58.403Z,10.00
2022-10-24T01:19:42.355Z,10.30
2022-10-24T01:22:17.518Z,12.80
2022-10-24T01:24:56.522Z,15.80
2022-10-24T01:27:42.090Z,13.70
2022-10-24T01:30:12.430Z,12.70
2022-10-24T01:32:46.844Z,16.50
2022-10-24T01:35:25.514Z,15.60
2022-10-24T01:38:01.366Z,12.90
2022-10-24T01:40:34.154Z,13.70
2022-10-24T01:45:34.603Z,13.00
2022-10-24T01:48:07.461Z,14.40
2022-10-24T01:50:37.822Z,16.20
2022-10-24T01:53:08.543Z,14.50
2022-10-24T01:55:38.025Z,13.20
2022-10-24T01:58:07.939Z,14.10
2022-10-24T02:00:36.974Z,18.60
2022-10-24T02:03:12.172Z,13.70
2022-10-24T02:05:44.190Z,16.30
2022-10-24T02:08:16.114Z,15.80
2022-10-24T02:10:49.367Z,14.60
2022-10-24T02:13:26.421Z,15.90
2022-10-24T02:15:57.626Z,16.60
2022-10-24T02:18:26.899Z,14.60
2022-10-24T02:20:57.931Z,13.80
2022-10-24T02:23:34.175Z,14.70
2022-10-24T02:26:07.074Z,14.90
2022-10-24T02:28:41.018Z,14.60
2022-10-24T02:31:12.833Z,14.30
2022-10-24T02:33:42.172Z,15.30
2022-10-24T02:36:12.948Z,15.80
2022-10-24T02:38:44.632Z,13.70
2022-10-24T02:41:17.279Z,14.30
2022-10-24T02:46:14.919Z,16.00
2022-10-24T02:48:47.574Z,17.00
2022-10-24T02:51:18.769Z,17.40
2022-10-24T02:53:48.128Z,16.70
2022-10-24T02:56:17.046Z,14.70
2022-10-24T02:58:46.117Z,17.50
2022-10-24T03:01:15.152Z,16.50
2022-10-24T03:03:44.266Z,15.30
2022-10-24T03:06:13.299Z,16.60
2022-10-24T03:08:42.437Z,16.10
2022-10-24T03:11:11.514Z,17.40
2022-10-24T03:13:40.381Z,14.40
2022-10-24T03:16:11.717Z,14.70
2022-10-24T03:18:43.173Z,16.60
2022-10-24T03:21:12.185Z,15.10
2022-10-24T03:23:41.076Z,13.30
2022-10-24T03:26:09.957Z,16.10
2022-10-24T03:28:38.865Z,13.20
2022-10-24T03:31:08.004Z,15.70
2022-10-24T03:33:37.034Z,16.30
2022-10-24T03:36:06.805Z,13.00
2022-10-24T03:38:35.772Z,12.90
2022-10-24T03:41:05.245Z,17.90
2022-10-24T03:43:34.442Z,14.60
2022-10-24T03:46:03.644Z,13.20
2022-10-24T03:48:32.593Z,12.30
2022-10-24T03:51:01.534Z,14.20
2022-10-24T03:53:30.435Z,13.20
2022-10-24T03:56:00.061Z,12.70
2022-10-24T03:58:29.117Z,13.60
2022-10-24T04:00:58.844Z,14.20
2022-10-24T04:03:28.491Z,14.10
2022-10-24T04:05:57.521Z,11.80
2022-10-24T04:08:26.501Z,15.60
2022-10-24T04:10:55.704Z,12.40
2022-10-24T04:13:24.744Z,13.80
2022-10-24T04:15:53.876Z,14.50
2022-10-24T04:18:22.864Z,12.50
2022-10-24T04:20:51.817Z,10.90
2022-10-24T04:23:20.692Z,12.30
2022-10-24T04:25:49.995Z,15.60
2022-10-24T04:28:19.406Z,16.10
2022-10-24T04:30:56.239Z,13.80
2022-10-24T04:33:25.725Z,14.70
2022-10-24T04:35:55.184Z,12.80
2022-10-24T04:38:24.819Z,14.30
2022-10-24T04:40:56.862Z,13.90
2022-10-24T04:43:25.786Z,15.80
2022-10-24T04:45:54.589Z,11.70
2022-10-24T04:48:23.522Z,12.90
2022-10-24T04:50:52.316Z,13.30
2022-10-24T04:53:21.296Z,14.50
2022-10-24T04:55:50.202Z,12.40
2022-10-24T04:58:19.285Z,15.00
2022-10-24T05:00:49.749Z,11.30
2022-10-24T05:03:19.988Z,17.30
2022-10-24T05:05:49.178Z,11.20
2022-10-24T05:08:18.565Z,17.40
2022-10-24T05:10:48.225Z,30.50
2022-10-24T05:13:17.339Z,14.30
2022-10-24T05:15:46.169Z,11.40
2022-10-24T05:18:14.969Z,17.40
2022-10-24T05:20:43.760Z,19.50
2022-10-24T05:23:12.686Z,18.70
2022-10-24T05:25:41.596Z,15.80
2022-10-24T05:28:10.424Z,16.10
2022-10-24T05:30:39.431Z,12.70
2022-10-24T05:33:08.272Z,13.10
2022-10-24T05:35:37.465Z,19.50
2022-10-24T05:38:06.421Z,14.30
2022-10-24T05:40:35.413Z,13.60
2022-10-24T05:43:04.507Z,12.00
2022-10-24T05:45:33.396Z,18.80
2022-10-24T05:48:02.269Z,12.50
2022-10-24T05:50:31.198Z,15.90
2022-10-24T05:52:59.965Z,18.90
2022-10-24T05:55:30.725Z,15.30
2022-10-24T05:57:59.831Z,15.00
2022-10-24T06:00:28.975Z,11.60
2022-10-24T06:02:57.977Z,13.50
2022-10-24T06:05:27.002Z,14.10
2022-10-24T06:07:56.338Z,15.00
2022-10-24T06:10:25.793Z,16.10
2022-10-24T06:12:55.260Z,25.20
2022-10-24T06:15:24.853Z,13.70
2022-10-24T06:17:53.945Z,15.10
2022-10-24T06:20:22.770Z,11.70
2022-10-24T06:22:51.573Z,20.60
2022-10-24T06:25:20.546Z,12.70
2022-10-24T06:27:49.409Z,13.30
2022-10-24T06:30:18.720Z,13.90
2022-10-24T06:32:47.856Z,17.00
2022-10-24T06:35:18.570Z,17.00
2022-10-24T06:37:48.378Z,21.00
2022-10-24T06:40:19.949Z,15.70
2022-10-24T06:42:49.121Z,15.20
2022-10-24T06:45:20.727Z,17.90
2022-10-24T06:47:52.012Z,18.70
2022-10-24T06:50:32.015Z,19.80
2022-10-24T06:53:01.441Z,19.80
2022-10-24T06:55:30.326Z,20.10
2022-10-24T06:57:59.321Z,20.60
2022-10-24T07:03:02.239Z,20.00
2022-10-24T07:05:31.541Z,18.70
2022-10-24T07:08:00.686Z,22.50
2022-10-24T07:10:29.756Z,17.00
2022-10-24T07:12:59.095Z,17.20
2022-10-24T07:15:28.117Z,17.50
2022-10-24T07:17:59.980Z,14.90
2022-10-24T07:20:28.961Z,24.60
2022-10-24T07:22:57.874Z,16.60
2022-10-24T07:25:26.761Z,21.10
2022-10-24T07:27:56.873Z,16.30
2022-10-24T07:30:26.015Z,18.80
2022-10-24T07:32:55.477Z,15.30
2022-10-24T07:35:24.254Z,35.40
2022-10-24T07:37:53.489Z,21.60
2022-10-24T07:40:22.678Z,23.00
2022-10-24T07:42:51.560Z,17.90
2022-10-24T07:45:20.720Z,17.10
2022-10-24T07:47:49.643Z,21.50
2022-10-24T07:50:18.781Z,16.50
2022-10-24T07:52:47.598Z,16.00
2022-10-24T07:55:16.689Z,17.80
2022-10-24T07:57:45.711Z,16.90
2022-10-24T08:00:16.868Z,16.20
2022-10-24T08:02:45.688Z,21.40
2022-10-24T08:05:17.043Z,17.90
2022-10-24T08:07:56.262Z,18.80
2022-10-24T08:10:38.114Z,16.70
2022-10-24T08:13:10.318Z,22.20
2022-10-24T08:15:42.417Z,20.10
2022-10-24T08:18:11.323Z,16.40
2022-10-24T08:20:40.189Z,21.40
2022-10-24T08:23:09.378Z,18.70
2022-10-24T08:25:42.173Z,22.50
2022-10-24T08:28:11.519Z,20.70
2022-10-24T08:30:40.809Z,20.70
2022-10-24T08:33:09.757Z,19.10
2022-10-24T08:35:38.898Z,19.10
2022-10-24T08:38:08.455Z,22.80
2022-10-24T08:40:37.690Z,22.00
2022-10-24T08:43:06.881Z,23.60
2022-10-24T08:45:42.193Z,18.70
2022-10-24T08:48:14.694Z,19.20
2022-10-24T08:50:47.513Z,18.10
2022-10-24T08:53:21.576Z,19.50
2022-10-24T08:55:53.371Z,19.40
2022-10-24T08:58:25.141Z,19.70
2022-10-24T09:00:55.666Z,19.10
2022-10-24T09:03:43.846Z,18.20
2022-10-24T09:06:20.221Z,19.10
2022-10-24T09:08:53.206Z,21.80
2022-10-24T09:11:27.837Z,18.40
2022-10-24T09:13:57.449Z,18.40
2022-10-24T09:16:27.330Z,19.40
2022-10-24T09:18:58.054Z,24.30
2022-10-24T09:21:27.471Z,18.60
2022-10-24T09:23:56.797Z,18.30
2022-10-24T09:26:29.282Z,18.10
2022-10-24T09:28:59.249Z,12.80
2022-10-24T09:31:28.898Z,13.20
2022-10-24T09:33:59.919Z,18.50
2022-10-24T09:36:31.144Z,19.00
2022-10-24T09:39:24.993Z,17.60
2022-10-24T09:41:54.895Z,14.50
2022-10-24T09:44:37.840Z,18.60
2022-10-24T09:47:23.523Z,22.20
2022-10-24T09:49:53.908Z,14.00
2022-10-24T09:52:25.109Z,18.40
2022-10-24T09:55:16.361Z,16.10
2022-10-24T09:57:45.717Z,14.50
2022-10-24T10:00:24.103Z,17.20
2022-10-24T10:03:05.076Z,14.80
2022-10-24T10:05:46.074Z,16.40
2022-10-24T10:08:20.801Z,13.20
2022-10-24T10:11:01.501Z,11.60
2022-10-24T10:13:31.155Z,11.90
2022-10-24T10:16:01.822Z,14.70
2022-10-24T10:18:34.160Z,13.60
2022-10-24T10:21:09.945Z,11.50
2022-10-24T10:23:41.550Z,13.60
2022-10-24T10:26:27.984Z,11.40
2022-10-24T10:28:59.880Z,12.50
2022-10-24T10:31:34.904Z,12.00
2022-10-24T10:34:21.406Z,12.30
2022-10-24T10:37:26.992Z,20.20
2022-10-24T10:40:07.593Z,7.30
2022-10-24T10:42:46.617Z,9.40
2022-10-24T10:45:20.011Z,10.00
2022-10-24T10:48:01.963Z,10.20
2022-10-24T10:50:37.751Z,8.30
2022-10-24T10:53:21.688Z,12.20
2022-10-24T10:55:57.498Z,8.20
2022-10-24T10:58:38.947Z,9.10
2022-10-24T11:01:15.739Z,11.50
2022-10-24T11:04:13.989Z,25.00
2022-10-24T11:06:52.093Z,7.70
2022-10-24T11:09:29.127Z,9.20
2022-10-24T11:12:06.571Z,10.50
2022-10-24T11:14:38.228Z,10.00
2022-10-24T11:17:13.638Z,13.80
2022-10-24T11:19:49.535Z,6.50
2022-10-24T11:22:23.102Z,12.70
2022-10-24T11:24:58.853Z,7.80
2022-10-24T11:27:35.603Z,12.30
2022-10-24T11:30:11.597Z,9.80
2022-10-24T11:32:45.046Z,6.60
2022-10-24T11:35:20.030Z,7.20
2022-10-24T11:37:50.813Z,10.00
2022-10-24T11:40:21.764Z,10.20
2022-10-24T11:42:54.063Z,8.50
2022-10-24T11:45:26.411Z,8.10
2022-10-24T11:48:11.825Z,14.40
2022-10-24T11:50:47.801Z,7.90
2022-10-24T11:53:41.606Z,6.50
2022-10-24T11:56:33.428Z,6.00
2022-10-24T11:59:17.812Z,12.20
2022-10-24T12:02:18.803Z,8.50
2022-10-24T12:05:25.147Z,5.10
2022-10-24T12:08:49.713Z,7.40
2022-10-24T12:11:54.966Z,6.20
2022-10-24T12:14:53.368Z,7.80
2022-10-24T12:17:37.621Z,7.80
2022-10-24T12:20:12.070Z,6.40
2022-10-24T12:26:18.801Z,8.60
2022-10-24T12:28:59.712Z,8.10
2022-10-24T12:31:33.775Z,8.40
2022-10-24T12:34:55.146Z,7.20
2022-10-24T12:37:39.560Z,7.20
2022-10-24T12:40:52.894Z,11.40
2022-10-24T12:43:34.127Z,5.60
2022-10-24T12:46:43.771Z,6.60
2022-10-24T12:49:26.388Z,8.70
2022-10-24T12:51:59.684Z,6.30
2022-10-24T12:54:44.303Z,6.30
2022-10-24T12:57:31.722Z,6.60
2022-10-24T13:00:06.373Z,4.00
2022-10-24T13:02:59.383Z,2.90
2022-10-24T13:05:56.065Z,5.40
2022-10-24T13:08:57.341Z,4.70
2022-10-24T13:11:48.039Z,6.10
2022-10-24T13:14:50.306Z,5.90
2022-10-24T13:17:33.268Z,3.80
2022-10-24T13:20:36.314Z,6.70
2022-10-24T13:29:07.478Z,4.90
2022-10-24T13:31:50.010Z,4.80
2022-10-24T13:34:43.357Z,6.10
2022-10-24T13:37:25.287Z,5.60
2022-10-24T13:40:10.907Z,8.00
2022-10-24T13:42:53.110Z,6.40
2022-10-24T13:45:43.083Z,4.30
2022-10-24T13:48:25.303Z,7.60
2022-10-24T13:51:19.744Z,4.40
2022-10-24T13:53:57.028Z,6.70
2022-10-24T13:56:32.873Z,7.70
2022-10-24T13:59:08.310Z,5.10
2022-10-24T14:01:49.345Z,10.80
2022-10-24T14:04:42.828Z,4.80
2022-10-24T14:07:22.776Z,3.80
2022-10-24T14:09:58.920Z,4.50
2022-10-24T14:12:34.780Z,6.00
2022-10-24T14:15:16.749Z,6.30
2022-10-24T14:18:04.835Z,9.70
2022-10-24T14:20:39.873Z,7.20
2022-10-24T14:23:28.187Z,8.90
2022-10-24T14:26:10.080Z,4.50
2022-10-24T14:29:00.156Z,5.40
2022-10-24T14:31:37.662Z,7.90
2022-10-24T14:34:25.300Z,7.00
2022-10-24T14:37:19.538Z,8.30
2022-10-24T14:39:56.483Z,7.70
2022-10-24T14:42:51.797Z,9.20
2022-10-24T14:45:32.521Z,8.20
2022-10-24T14:48:25.255Z,9.80
2022-10-24T14:51:09.685Z,12.90
2022-10-24T14:53:43.799Z,17.90
2022-10-24T14:56:31.843Z,11.70
2022-10-24T14:59:17.618Z,10.40
2022-10-24T15:01:58.936Z,10.40
2022-10-24T15:04:39.645Z,17.80
2022-10-24T15:07:30.677Z,10.20
2022-10-24T15:10:21.949Z,7.30
2022-10-24T15:13:17.004Z,10.30
2022-10-24T15:15:56.732Z,11.70
2022-10-24T15:18:32.087Z,12.30
2022-10-24T15:21:15.686Z,10.60
2022-10-24T15:23:51.608Z,8.40
2022-10-24T15:26:27.833Z,10.10
2022-10-24T15:29:09.293Z,10.40
2022-10-24T15:31:44.008Z,12.40
2022-10-24T15:34:24.273Z,15.00
2022-10-24T15:37:11.357Z,10.90
2022-10-24T15:40:05.005Z,12.90
2022-10-24T15:42:47.456Z,19.10
2022-10-24T15:45:22.277Z,15.40
2022-10-24T15:47:55.319Z,15.30
2022-10-24T15:50:27.620Z,10.60
2022-10-24T15:53:05.475Z,15.90
2022-10-24T15:55:39.873Z,17.50
2022-10-24T15:58:16.288Z,16.60
2022-10-24T16:00:51.289Z,20.00
2022-10-24T16:03:27.093Z,13.90
2022-10-24T16:06:05.812Z,20.80
2022-10-24T16:08:40.860Z,16.00
2022-10-24T16:11:14.613Z,15.70
2022-10-24T16:13:47.695Z,18.80
2022-10-24T16:16:25.722Z,20.50
2022-10-24T16:19:03.216Z,15.50
2022-10-24T16:21:40.065Z,23.40
2022-10-24T16:24:17.642Z,23.40
2022-10-24T16:26:56.428Z,20.00
2022-10-24T16:29:33.670Z,24.30
2022-10-24T16:32:08.561Z,18.80
2022-10-24T16:34:51.043Z,19.60
2022-10-24T16:37:26.882Z,19.20
2022-10-24T16:40:00.003Z,22.80
2022-10-24T16:42:33.589Z,21.80
2022-10-24T16:45:07.322Z,19.00
2022-10-24T16:47:39.676Z,16.90
2022-10-24T16:52:47.209Z,22.10
2022-10-24T16:55:21.016Z,28.20
2022-10-24T16:57:53.635Z,25.70
2022-10-24T17:03:01.494Z,24.90
2022-10-24T17:05:34.634Z,21.50
2022-10-24T17:08:11.971Z,23.40
2022-10-24T17:10:49.747Z,29.10
2022-10-24T17:13:24.384Z,26.40
2022-10-24T17:16:00.389Z,27.50
2022-10-24T17:19:04.756Z,34.10
2022-10-24T17:21:43.260Z,33.50
2022-10-24T17:24:21.217Z,31.60
2022-10-24T17:26:56.516Z,34.00
2022-10-24T17:29:31.667Z,30.20
2022-10-24T17:32:06.196Z,23.20
2022-10-24T17:34:39.451Z,30.00
2022-10-24T17:37:20.121Z,26.80
2022-10-24T17:39:54.126Z,37.00
2022-10-24T17:42:27.265Z,40.50
2022-10-24T17:45:00.242Z,28.70
2022-10-24T17:47:34.427Z,28.50
2022-10-24T17:50:07.986Z,26.70
2022-10-24T17:52:44.010Z,27.50
2022-10-24T17:55:45.242Z,25.50
2022-10-24T17:58:29.116Z,36.10
2022-10-24T18:01:18.824Z,29.40
2022-10-24T18:03:53.087Z,35.80
2022-10-24T18:06:26.392Z,25.60
2022-10-24T18:09:10.608Z,27.60
2022-10-24T18:11:47.909Z,26.40
2022-10-24T18:14:20.254Z,26.00
2022-10-24T18:19:45.369Z,23.60
2022-10-24T18:22:18.531Z,29.20
2022-10-24T18:25:06.923Z,24.70
2022-10-24T18:28:02.496Z,23.60
2022-10-24T18:31:12.160Z,21.50
2022-10-24T18:33:56.020Z,23.00
2022-10-24T18:36:57.911Z,25.30
2022-10-24T18:40:12.751Z,23.70
2022-10-24T18:46:33.293Z,20.80
2022-10-24T18:49:15.822Z,24.40
2022-10-24T18:51:57.160Z,20.90
2022-10-24T19:08:20.309Z,23.70
2022-10-24T19:10:56.821Z,22.80
2022-10-24T19:16:48.373Z,31.10
2022-10-24T19:25:46.761Z,20.70
2022-10-24T19:28:21.020Z,22.10
2022-10-24T19:31:04.016Z,23.10
2022-10-24T19:33:44.375Z,21.30
2022-10-24T19:36:24.161Z,22.00
2022-10-24T19:39:01.350Z,25.30
2022-10-24T19:41:38.249Z,23.30
2022-10-24T19:44:14.212Z,20.50
2022-10-24T19:46:48.574Z,25.20
2022-10-24T19:52:02.296Z,19.60
2022-10-24T19:54:54.706Z,22.80
2022-10-24T19:57:29.626Z,22.90
2022-10-24T20:00:06.366Z,23.30
2022-10-24T20:02:39.289Z,20.70
2022-10-24T20:05:14.762Z,22.00
2022-10-24T20:07:52.132Z,19.20
2022-10-24T20:10:27.048Z,18.30
2022-10-24T20:13:03.064Z,21.10
2022-10-24T20:15:40.605Z,22.10
2022-10-24T20:18:16.019Z,18.10
2022-10-24T20:20:50.106Z,21.90
2022-10-24T20:26:01.001Z,20.70
2022-10-24T20:28:38.036Z,14.20
2022-10-24T20:31:20.029Z,23.40
2022-10-24T20:33:57.627Z,23.90
2022-10-24T20:36:31.586Z,24.00
2022-10-24T20:39:03.958Z,20.50
2022-10-24T20:41:36.572Z,15.80
2022-10-24T20:44:14.888Z,19.70
2022-10-24T20:46:55.562Z,19.30
2022-10-24T20:49:27.927Z,22.60
2022-10-24T20:54:31.387Z,18.90
2022-10-24T20:57:05.555Z,16.40
2022-10-24T20:59:39.167Z,15.20
2022-10-24T21:02:12.040Z,17.70
2022-10-24T21:04:44.241Z,17.70
2022-10-24T21:07:16.406Z,16.40
2022-10-24T21:09:48.684Z,18.20
2022-10-24T21:12:20.892Z,15.50
2022-10-24T21:14:53.213Z,12.60
2022-10-24T21:20:02.887Z,14.00
2022-10-24T21:22:35.163Z,12.50
2022-10-24T21:25:08.125Z,11.20
2022-10-24T21:27:40.413Z,16.60
2022-10-24T21:30:14.899Z,14.10
2022-10-24T21:32:47.335Z,11.20
2022-10-24T21:35:19.763Z,11.80
2022-10-24T21:40:22.696Z,12.90
2022-10-24T21:42:54.929Z,12.50
2022-10-24T21:45:27.102Z,11.00
2022-10-24T21:47:59.314Z,16.00
2022-10-24T21:50:31.700Z,15.60
2022-10-24T21:53:03.896Z,12.60
2022-10-24T21:55:36.021Z,13.50
2022-10-24T21:58:08.278Z,15.80
2022-10-24T22:00:40.520Z,10.70
2022-10-24T22:03:12.724Z,11.20
2022-10-24T22:15:04.029Z,15.60
2022-10-24T22:17:32.902Z,12.90
2022-10-24T22:20:01.638Z,13.10
2022-10-24T22:22:30.574Z,13.80
2022-10-24T22:24:59.312Z,13.50
2022-10-24T22:27:28.049Z,18.50
2022-10-24T22:29:56.785Z,15.30
2022-10-24T22:34:57.134Z,13.20
2022-10-24T22:37:29.246Z,15.80
2022-10-24T22:39:58.987Z,12.90
2022-10-24T22:42:28.594Z,12.20
2022-10-24T22:44:58.610Z,15.50
2022-10-24T22:48:02.471Z,18.20
2022-10-24T22:50:51.473Z,19.60
2022-10-24T22:53:22.873Z,15.90
2022-10-24T22:56:01.431Z,19.00
2022-10-24T22:58:31.317Z,16.90
2022-10-24T23:01:04.533Z,15.30
2022-10-24T23:03:41.054Z,20.90
2022-10-24T23:06:14.195Z,21.10
2022-10-24T23:08:44.039Z,19.50
2022-10-24T23:11:14.187Z,26.50
2022-10-24T23:13:44.124Z,27.50
2022-10-24T23:16:24.050Z,22.20
2022-10-24T23:18:53.933Z,22.00
2022-10-24T23:21:28.745Z,14.10
2022-10-24T23:23:58.408Z,24.90
2022-10-24T23:26:33.769Z,28.30
2022-10-24T23:29:09.040Z,24.00
2022-10-24T23:31:38.835Z,27.10
2022-10-24T23:34:10.348Z,30.00
2022-10-24T23:36:41.897Z,29.90
2022-10-24T23:39:11.730Z,18.60
2022-10-24T23:41:42.254Z,17.50
2022-10-24T23:44:12.367Z,24.20
2022-10-24T23:46:46.532Z,41.60
2022-10-24T23:49:23.099Z,27.90
2022-10-24T23:51:59.452Z,30.40
2022-10-24T23:54:32.610Z,25.90
2022-10-24T23:57:02.657Z,29.00
2022-10-24T23:59:31.380Z,28.70
